createdAt,value
2023-10-06T00:00:11.215Z,2.70
2023-10-06T00:02:59.055Z,2.30
2023-10-06T00:05:54.472Z,2.43
2023-10-06T00:08:42.006Z,2.97
2023-10-06T00:11:30.419Z,2.90
2023-10-06T00:14:40.031Z,2.73
2023-10-06T00:17:34.838Z,2.83
2023-10-06T00:20:28.027Z,2.90
2023-10-06T00:23:15.954Z,3.00
2023-10-06T00:26:05.515Z,2.60
2023-10-06T00:28:52.382Z,2.60
2023-10-06T00:31:40.981Z,2.87
2023-10-06T00:34:32.147Z,2.60
2023-10-06T00:37:23.511Z,2.43
2023-10-06T00:40:13.272Z,2.47
2023-10-06T00:43:02.430Z,2.50
2023-10-06T00:45:49.350Z,3.13
2023-10-06T00:48:45.869Z,2.83
2023-10-06T00:51:32.847Z,2.87
2023-10-06T00:54:20.866Z,2.43
2023-10-06T00:57:11.995Z,2.90
2023-10-06T00:59:59.946Z,2.70
2023-10-06T01:02:47.142Z,2.80
2023-10-06T01:05:35.233Z,2.87
2023-10-06T01:08:22.371Z,2.67
2023-10-06T01:11:18.192Z,2.80
2023-10-06T01:14:05.202Z,2.37
2023-10-06T01:16:52.281Z,3.40
2023-10-06T01:19:48.501Z,2.60
2023-10-06T01:22:43.020Z,2.70
2023-10-06T01:25:36.372Z,2.53
2023-10-06T01:28:24.913Z,2.60
2023-10-06T01:31:14.018Z,2.97
2023-10-06T01:34:00.805Z,2.90
2023-10-06T01:36:57.329Z,2.60
2023-10-06T01:39:45.752Z,2.93
2023-10-06T01:42:32.536Z,2.53
2023-10-06T01:45:22.783Z,2.93
2023-10-06T01:48:15.418Z,2.67
2023-10-06T01:51:02.449Z,2.73
2023-10-06T01:53:51.107Z,2.90
2023-10-06T01:56:38.314Z,2.90
2023-10-06T01:59:26.268Z,3.37
2023-10-06T02:02:14.998Z,3.20
2023-10-06T02:05:03.107Z,3.43
2023-10-06T02:07:49.988Z,3.50
2023-10-06T02:10:41.309Z,3.83
2023-10-06T02:13:30.999Z,3.63
2023-10-06T02:16:21.467Z,4.00
2023-10-06T02:19:17.043Z,4.13
2023-10-06T02:22:07.921Z,4.10
2023-10-06T02:24:54.852Z,4.20
2023-10-06T02:27:45.724Z,4.20
2023-10-06T02:30:38.223Z,3.73
2023-10-06T02:33:25.802Z,4.17
2023-10-06T02:36:24.446Z,4.10
2023-10-06T02:39:17.126Z,4.10
2023-10-06T02:42:09.585Z,3.83
2023-10-06T02:44:56.458Z,3.63
2023-10-06T02:47:43.926Z,3.80
2023-10-06T02:50:34.717Z,4.10
2023-10-06T02:53:22.412Z,4.47
2023-10-06T02:56:10.350Z,5.33
2023-10-06T02:59:00.292Z,4.73
2023-10-06T03:01:57.116Z,4.40
2023-10-06T03:04:45.223Z,4.23
2023-10-06T03:07:32.040Z,3.97
2023-10-06T03:10:19.780Z,3.10
2023-10-06T03:13:09.360Z,3.50
2023-10-06T03:15:56.220Z,3.63
2023-10-06T03:18:45.592Z,3.30
2023-10-06T03:21:33.791Z,4.97
2023-10-06T03:24:32.144Z,4.80
2023-10-06T03:27:19.814Z,4.37
2023-10-06T03:30:19.905Z,5.80
2023-10-06T03:33:12.917Z,4.60
2023-10-06T03:35:59.771Z,4.30
2023-10-06T03:38:57.016Z,4.00
2023-10-06T03:41:47.940Z,4.70
2023-10-06T03:44:35.955Z,4.40
2023-10-06T03:47:22.839Z,3.90
2023-10-06T03:50:10.071Z,4.63
2023-10-06T03:52:56.908Z,5.10
2023-10-06T03:55:46.356Z,4.53
2023-10-06T03:58:33.439Z,4.40
2023-10-06T04:01:27.410Z,3.63
2023-10-06T04:04:16.435Z,4.53
2023-10-06T04:07:04.528Z,4.33
2023-10-06T04:09:51.362Z,3.90
2023-10-06T04:12:38.258Z,4.40
2023-10-06T04:15:27.729Z,3.60
2023-10-06T04:18:17.977Z,3.50
2023-10-06T04:21:05.575Z,3.40
2023-10-06T04:23:52.381Z,3.10
2023-10-06T04:26:40.771Z,3.17
2023-10-06T04:29:36.761Z,3.93
2023-10-06T04:32:23.546Z,3.20
2023-10-06T04:35:20.653Z,3.73
2023-10-06T04:38:13.932Z,3.33
2023-10-06T04:41:01.059Z,3.80
2023-10-06T04:43:48.059Z,4.03
2023-10-06T04:46:36.329Z,3.57
2023-10-06T04:49:23.418Z,3.70
2023-10-06T04:52:10.260Z,4.17
2023-10-06T04:54:57.024Z,3.60
2023-10-06T04:57:44.245Z,3.33
2023-10-06T05:00:31.024Z,3.00
2023-10-06T05:03:17.957Z,3.17
2023-10-06T05:06:10.673Z,3.20
2023-10-06T05:08:57.582Z,2.40
2023-10-06T05:11:44.846Z,2.80
2023-10-06T05:14:35.464Z,2.50
2023-10-06T05:17:23.105Z,2.73
2023-10-06T05:20:20.594Z,2.73
2023-10-06T05:23:16.092Z,3.17
2023-10-06T05:26:09.671Z,3.43
2023-10-06T05:28:56.569Z,3.20
2023-10-06T05:31:43.590Z,3.77
2023-10-06T05:34:31.057Z,3.60
2023-10-06T05:37:17.963Z,3.40
2023-10-06T05:40:05.453Z,3.40
2023-10-06T05:42:52.417Z,2.90
2023-10-06T05:45:58.237Z,3.13
2023-10-06T05:48:46.166Z,3.03
2023-10-06T05:51:34.973Z,3.40
2023-10-06T05:54:24.664Z,2.80
2023-10-06T05:57:11.808Z,3.00
2023-10-06T05:59:58.657Z,2.90
2023-10-06T06:02:48.592Z,2.90
2023-10-06T06:05:41.583Z,2.90
2023-10-06T06:08:31.452Z,3.03
2023-10-06T06:11:19.451Z,2.70
2023-10-06T06:14:16.908Z,3.20
2023-10-06T06:17:06.801Z,2.73
2023-10-06T06:20:04.576Z,2.43
2023-10-06T06:22:59.639Z,2.90
2023-10-06T06:25:46.672Z,3.30
2023-10-06T06:28:33.536Z,2.77
2023-10-06T06:31:21.630Z,3.13
2023-10-06T06:34:08.439Z,3.17
2023-10-06T06:36:55.284Z,3.47
2023-10-06T06:39:45.587Z,3.00
2023-10-06T06:42:32.479Z,2.97
2023-10-06T06:45:25.330Z,3.30
2023-10-06T06:48:15.312Z,3.40
2023-10-06T06:51:02.228Z,3.33
2023-10-06T06:53:49.079Z,3.83
2023-10-06T06:56:36.301Z,3.70
2023-10-06T06:59:23.817Z,3.60
2023-10-06T07:02:11.122Z,3.43
2023-10-06T07:04:59.191Z,3.00
2023-10-06T07:07:48.133Z,3.57
2023-10-06T07:10:44.689Z,4.17
2023-10-06T07:13:32.431Z,4.03
2023-10-06T07:16:19.293Z,3.10
2023-10-06T07:19:07.798Z,3.80
2023-10-06T07:21:54.833Z,3.43
2023-10-06T07:24:41.611Z,3.77
2023-10-06T07:27:35.240Z,4.03
2023-10-06T07:30:24.016Z,3.93
2023-10-06T07:33:10.995Z,3.40
2023-10-06T07:35:59.025Z,3.40
2023-10-06T07:38:45.914Z,4.17
2023-10-06T07:41:33.936Z,4.13
2023-10-06T07:44:22.303Z,4.17
2023-10-06T07:47:09.282Z,3.73
2023-10-06T07:49:56.654Z,3.70
2023-10-06T07:52:44.124Z,4.33
2023-10-06T07:55:33.320Z,4.23
2023-10-06T07:58:20.417Z,3.97
2023-10-06T08:01:09.374Z,4.43
2023-10-06T08:03:56.442Z,4.63
2023-10-06T08:06:43.221Z,4.50
2023-10-06T08:09:33.757Z,4.33
2023-10-06T08:12:20.597Z,4.63
2023-10-06T08:15:10.714Z,4.33
2023-10-06T08:17:57.879Z,4.27
2023-10-06T08:20:45.478Z,4.60
2023-10-06T08:23:36.750Z,4.53
2023-10-06T08:26:24.228Z,4.70
2023-10-06T08:29:11.117Z,4.53
2023-10-06T08:31:59.161Z,4.73
2023-10-06T08:34:47.511Z,4.67
2023-10-06T08:37:34.458Z,4.53
2023-10-06T08:40:24.180Z,4.53
2023-10-06T08:43:11.634Z,4.77
2023-10-06T08:46:01.514Z,4.00
2023-10-06T08:48:48.762Z,4.27
2023-10-06T08:51:35.592Z,4.90
2023-10-06T08:54:22.859Z,4.60
2023-10-06T08:57:13.109Z,4.37
2023-10-06T09:00:00.942Z,4.40
2023-10-06T09:02:48.770Z,4.03
2023-10-06T09:05:42.458Z,4.60
2023-10-06T09:08:42.081Z,4.27
2023-10-06T09:11:42.061Z,4.53
2023-10-06T09:14:29.927Z,4.53
2023-10-06T09:17:17.363Z,4.37
2023-10-06T09:20:13.380Z,4.10
2023-10-06T09:23:05.953Z,4.50
2023-10-06T09:25:54.446Z,4.93
2023-10-06T09:28:54.269Z,5.37
2023-10-06T09:31:48.048Z,5.30
2023-10-06T09:34:36.653Z,4.70
2023-10-06T09:37:23.493Z,4.73
2023-10-06T09:40:21.849Z,6.07
2023-10-06T09:43:08.839Z,5.33
2023-10-06T09:45:56.745Z,5.63
2023-10-06T09:48:46.957Z,5.67
2023-10-06T09:51:34.398Z,5.90
2023-10-06T09:54:21.620Z,5.10
2023-10-06T09:57:08.548Z,5.83
2023-10-06T09:59:56.355Z,5.67
2023-10-06T10:02:51.919Z,5.87
2023-10-06T10:05:39.477Z,5.00
2023-10-06T10:08:26.419Z,5.57
2023-10-06T10:11:40.358Z,5.07
2023-10-06T10:14:50.673Z,5.87
2023-10-06T10:18:10.869Z,5.03
2023-10-06T10:21:01.324Z,5.70
2023-10-06T10:23:49.437Z,5.20
2023-10-06T10:26:37.204Z,5.20
2023-10-06T10:29:25.538Z,5.43
2023-10-06T10:32:14.493Z,5.47
2023-10-06T10:35:15.709Z,5.17
2023-10-06T10:38:07.819Z,5.40
2023-10-06T10:40:55.162Z,5.43
2023-10-06T10:43:46.836Z,5.17
2023-10-06T10:46:54.305Z,5.43
2023-10-06T10:49:41.637Z,5.50
2023-10-06T10:52:28.645Z,5.60
2023-10-06T10:55:17.610Z,6.03
2023-10-06T10:58:05.640Z,6.07
2023-10-06T11:01:31.417Z,5.37
2023-10-06T11:04:27.903Z,6.37
2023-10-06T11:07:17.512Z,5.80
2023-10-06T11:10:05.865Z,6.27
2023-10-06T11:13:11.858Z,6.20
2023-10-06T11:16:05.376Z,5.77
2023-10-06T11:18:52.137Z,6.10
2023-10-06T11:21:38.965Z,5.47
2023-10-06T11:24:26.895Z,6.50
2023-10-06T11:27:15.935Z,5.20
2023-10-06T11:30:09.176Z,5.53
2023-10-06T11:32:59.195Z,6.80
2023-10-06T11:35:46.479Z,6.23
2023-10-06T11:38:33.322Z,5.70
2023-10-06T11:41:26.214Z,5.40
2023-10-06T11:44:13.002Z,5.87
2023-10-06T11:47:00.799Z,5.27
2023-10-06T11:49:54.884Z,5.53
2023-10-06T11:52:46.174Z,5.23
2023-10-06T11:55:35.314Z,5.93
2023-10-06T11:58:41.056Z,5.87
2023-10-06T12:01:37.615Z,5.20
2023-10-06T12:04:34.212Z,6.03
2023-10-06T12:07:24.958Z,5.53
2023-10-06T12:10:11.765Z,4.93
2023-10-06T12:12:58.695Z,5.10
2023-10-06T12:15:46.058Z,5.30
2023-10-06T12:18:36.644Z,5.07
2023-10-06T12:21:23.958Z,6.00
2023-10-06T12:24:12.909Z,5.73
2023-10-06T12:26:59.720Z,5.47
2023-10-06T12:29:49.766Z,6.03
2023-10-06T12:32:36.716Z,5.87
2023-10-06T12:35:23.890Z,6.63
2023-10-06T12:38:10.753Z,6.00
2023-10-06T12:40:57.772Z,5.50
2023-10-06T12:43:48.643Z,6.50
2023-10-06T12:46:38.462Z,5.63
2023-10-06T12:49:26.349Z,6.20
2023-10-06T12:52:15.304Z,6.33
2023-10-06T12:55:06.716Z,6.50
2023-10-06T12:57:55.521Z,6.80
2023-10-06T13:00:42.588Z,6.70
2023-10-06T13:03:30.652Z,7.30
2023-10-06T13:06:17.630Z,7.40
2023-10-06T13:09:04.879Z,6.50
2023-10-06T13:11:51.643Z,7.20
2023-10-06T13:14:39.515Z,7.50
2023-10-06T13:17:28.838Z,6.60
2023-10-06T13:20:17.315Z,7.17
2023-10-06T13:23:06.207Z,6.83
2023-10-06T13:25:54.531Z,6.87
2023-10-06T13:28:43.190Z,7.00
2023-10-06T13:31:30.088Z,6.93
2023-10-06T13:34:18.561Z,6.40
2023-10-06T13:37:05.380Z,6.77
2023-10-06T13:39:52.106Z,7.10
2023-10-06T13:42:46.925Z,6.37
2023-10-06T13:45:33.789Z,6.83
2023-10-06T13:48:24.078Z,6.60
2023-10-06T13:51:11.168Z,7.07
2023-10-06T13:53:57.974Z,6.13
2023-10-06T13:56:44.710Z,6.27
2023-10-06T13:59:31.858Z,6.27
2023-10-06T14:02:18.777Z,6.90
2023-10-06T14:05:06.167Z,6.97
2023-10-06T14:07:53.918Z,6.83
2023-10-06T14:10:41.455Z,6.50
2023-10-06T14:13:29.686Z,5.90
2023-10-06T14:16:23.345Z,6.73
2023-10-06T14:19:11.607Z,7.07
2023-10-06T14:21:58.402Z,6.60
2023-10-06T14:24:46.257Z,6.10
2023-10-06T14:27:33.107Z,6.70
2023-10-06T14:30:22.241Z,6.47
2023-10-06T14:33:12.998Z,6.73
2023-10-06T14:35:59.830Z,6.03
2023-10-06T14:38:46.619Z,6.37
2023-10-06T14:41:51.859Z,5.93
2023-10-06T14:44:56.955Z,6.17
2023-10-06T14:47:43.949Z,5.43
2023-10-06T14:50:30.915Z,5.80
2023-10-06T14:53:17.867Z,6.53
2023-10-06T14:56:05.387Z,5.77
2023-10-06T14:58:53.586Z,6.47
2023-10-06T15:01:41.984Z,6.07
2023-10-06T15:04:30.770Z,5.83
2023-10-06T15:07:17.548Z,5.63
2023-10-06T15:10:05.512Z,5.70
2023-10-06T15:12:52.605Z,5.73
2023-10-06T15:15:51.621Z,6.03
2023-10-06T15:18:38.595Z,6.27
2023-10-06T15:21:26.511Z,5.87
2023-10-06T15:24:15.624Z,6.40
2023-10-06T15:27:07.954Z,6.27
2023-10-06T15:29:55.047Z,5.43
2023-10-06T15:32:42.460Z,6.23
2023-10-06T15:35:37.260Z,5.57
2023-10-06T15:38:24.287Z,5.83
2023-10-06T15:41:11.859Z,5.47
2023-10-06T15:44:02.767Z,5.77
2023-10-06T15:46:51.315Z,6.07
2023-10-06T15:49:38.571Z,5.37
2023-10-06T15:52:25.429Z,6.07
2023-10-06T15:55:12.435Z,5.07
2023-10-06T15:57:59.204Z,6.10
2023-10-06T16:00:47.337Z,5.53
2023-10-06T16:03:35.594Z,6.60
2023-10-06T16:06:22.886Z,6.43
2023-10-06T16:09:10.582Z,5.50
2023-10-06T16:11:58.682Z,5.67
2023-10-06T16:14:45.622Z,5.90
2023-10-06T16:17:34.768Z,6.07
2023-10-06T16:20:24.026Z,5.13
2023-10-06T16:23:10.969Z,5.60
2023-10-06T16:25:58.495Z,5.60
2023-10-06T16:28:45.381Z,5.67
2023-10-06T16:31:33.323Z,5.63
2023-10-06T16:34:20.266Z,5.40
2023-10-06T16:37:07.136Z,5.43
2023-10-06T16:39:53.991Z,5.47
2023-10-06T16:42:42.288Z,5.00
2023-10-06T16:45:29.589Z,5.37
2023-10-06T16:48:16.396Z,6.37
2023-10-06T16:51:06.236Z,11.03
2023-10-06T16:53:54.142Z,6.80
2023-10-06T16:56:41.016Z,6.80
2023-10-06T16:59:28.140Z,6.00
2023-10-06T17:02:17.327Z,6.37
2023-10-06T17:05:05.408Z,6.07
2023-10-06T17:07:52.567Z,5.93
2023-10-06T17:10:39.380Z,5.53
2023-10-06T17:13:27.885Z,5.50
2023-10-06T17:16:15.277Z,5.77
2023-10-06T17:19:02.465Z,5.90
2023-10-06T17:21:49.303Z,6.17
2023-10-06T17:24:36.325Z,5.47
2023-10-06T17:27:23.206Z,5.03
2023-10-06T17:30:12.684Z,5.33
2023-10-06T17:32:59.616Z,5.27
2023-10-06T17:35:47.588Z,5.37
2023-10-06T17:38:34.717Z,5.03
2023-10-06T17:41:22.085Z,5.23
2023-10-06T17:44:10.416Z,4.97
2023-10-06T17:46:57.424Z,4.80
2023-10-06T17:49:45.685Z,5.27
2023-10-06T17:52:32.687Z,5.00
2023-10-06T17:55:20.247Z,5.40
2023-10-06T17:58:07.176Z,5.30
2023-10-06T18:00:54.007Z,6.37
2023-10-06T18:03:41.064Z,5.67
2023-10-06T18:06:27.952Z,5.47
2023-10-06T18:09:14.822Z,5.70
2023-10-06T18:12:14.952Z,5.77
2023-10-06T18:15:09.300Z,5.53
2023-10-06T18:17:57.915Z,6.23
2023-10-06T18:20:50.950Z,6.27
2023-10-06T18:23:37.815Z,5.90
2023-10-06T18:26:25.255Z,6.40
2023-10-06T18:29:12.304Z,6.60
2023-10-06T18:32:00.125Z,5.53
2023-10-06T18:34:47.114Z,6.00
2023-10-06T18:37:34.011Z,5.97
2023-10-06T18:40:20.842Z,5.73
2023-10-06T18:43:14.611Z,5.77
2023-10-06T18:46:01.866Z,5.47
2023-10-06T18:48:50.898Z,5.90
2023-10-06T18:51:38.064Z,5.53
2023-10-06T18:54:24.893Z,6.00
2023-10-06T18:57:11.938Z,5.90
2023-10-06T18:59:58.661Z,6.03
2023-10-06T19:02:48.307Z,6.10
2023-10-06T19:05:35.396Z,6.10
2023-10-06T19:08:22.220Z,6.97
2023-10-06T19:11:11.148Z,7.77
2023-10-06T19:13:58.114Z,7.40
2023-10-06T19:16:45.306Z,6.27
2023-10-06T19:19:32.292Z,6.27
2023-10-06T19:22:19.640Z,6.07
2023-10-06T19:25:10.985Z,5.70
2023-10-06T19:27:58.034Z,5.53
2023-10-06T19:30:57.732Z,5.40
2023-10-06T19:33:51.798Z,6.00
2023-10-06T19:36:40.337Z,5.60
2023-10-06T19:39:29.048Z,5.87
2023-10-06T19:42:15.949Z,5.60
2023-10-06T19:45:03.658Z,5.90
2023-10-06T19:47:54.933Z,5.53
2023-10-06T19:50:43.251Z,5.60
2023-10-06T19:53:31.346Z,6.20
2023-10-06T19:56:18.305Z,5.83
2023-10-06T19:59:07.769Z,6.00
2023-10-06T20:01:55.504Z,6.10
2023-10-06T20:04:43.819Z,6.47
2023-10-06T20:07:33.352Z,5.87
2023-10-06T20:10:23.116Z,5.30
2023-10-06T20:13:09.957Z,5.80
2023-10-06T20:15:57.684Z,5.37
2023-10-06T20:18:44.585Z,5.30
2023-10-06T20:21:31.413Z,5.70
2023-10-06T20:24:18.357Z,6.40
2023-10-06T20:27:07.597Z,5.53
2023-10-06T20:29:55.098Z,4.73
2023-10-06T20:32:43.288Z,5.37
2023-10-06T20:35:31.402Z,5.53
2023-10-06T20:38:18.279Z,4.90
2023-10-06T20:41:05.085Z,4.30
2023-10-06T20:43:51.953Z,5.50
2023-10-06T20:46:40.650Z,6.13
2023-10-06T20:49:27.734Z,5.53
2023-10-06T20:52:14.617Z,5.50
2023-10-06T20:55:01.458Z,5.33
2023-10-06T20:57:49.496Z,4.77
2023-10-06T21:00:38.847Z,5.60
2023-10-06T21:03:26.951Z,5.30
2023-10-06T21:06:18.500Z,5.17
2023-10-06T21:09:05.822Z,4.60
2023-10-06T21:11:55.713Z,4.77
2023-10-06T21:14:42.450Z,5.27
2023-10-06T21:17:29.453Z,4.90
2023-10-06T21:20:17.166Z,4.80
2023-10-06T21:23:05.338Z,4.37
2023-10-06T21:25:52.470Z,4.37
2023-10-06T21:28:39.478Z,5.13
2023-10-06T21:31:27.172Z,4.77
2023-10-06T21:34:14.113Z,4.70
2023-10-06T21:37:01.978Z,4.87
2023-10-06T21:39:48.793Z,4.43
2023-10-06T21:42:35.632Z,4.97
2023-10-06T21:45:23.397Z,4.20
2023-10-06T21:48:10.285Z,4.47
2023-10-06T21:50:57.437Z,4.70
2023-10-06T21:53:45.766Z,4.50
2023-10-06T21:56:32.602Z,4.70
2023-10-06T21:59:19.377Z,4.47
2023-10-06T22:02:06.319Z,4.93
2023-10-06T22:04:54.137Z,4.90
2023-10-06T22:07:41.161Z,4.50
2023-10-06T22:10:29.027Z,4.10
2023-10-06T22:13:15.990Z,4.57
2023-10-06T22:16:03.915Z,4.30
2023-10-06T22:18:50.741Z,4.70
2023-10-06T22:21:38.039Z,4.00
2023-10-06T22:24:24.843Z,4.63
2023-10-06T22:27:11.614Z,4.63
2023-10-06T22:30:01.504Z,3.90
2023-10-06T22:32:48.861Z,3.97
2023-10-06T22:35:37.799Z,4.03
2023-10-06T22:38:24.850Z,3.77
2023-10-06T22:41:18.329Z,4.20
2023-10-06T22:44:05.479Z,4.23
2023-10-06T22:47:19.757Z,4.27
2023-10-06T22:50:07.117Z,4.37
2023-10-06T22:52:55.294Z,4.30
2023-10-06T22:55:42.375Z,4.50
2023-10-06T22:58:29.241Z,4.37
2023-10-06T23:01:16.213Z,4.40
2023-10-06T23:04:03.103Z,4.37
2023-10-06T23:06:50.031Z,4.60
2023-10-06T23:09:36.835Z,4.23
2023-10-06T23:12:23.588Z,4.27
2023-10-06T23:15:11.681Z,4.10
2023-10-06T23:17:59.875Z,4.40
2023-10-06T23:20:47.856Z,4.03
2023-10-06T23:23:37.958Z,4.30
2023-10-06T23:26:25.061Z,4.47
2023-10-06T23:29:13.433Z,4.07
2023-10-06T23:32:00.556Z,3.90
2023-10-06T23:34:47.376Z,4.10
2023-10-06T23:37:34.359Z,4.43
2023-10-06T23:40:21.110Z,4.67
2023-10-06T23:43:07.958Z,3.93
2023-10-06T23:45:57.508Z,4.03
2023-10-06T23:48:47.622Z,4.30
2023-10-06T23:51:39.861Z,4.10
2023-10-06T23:54:27.217Z,4.20
2023-10-06T23:57:17.065Z,4.17
